createdAt,value
2024-01-15T00:00:09.177Z,98.18
2024-01-15T00:01:09.279Z,97.96
2024-01-15T00:02:09.184Z,98.28
2024-01-15T00:03:09.587Z,98.32
2024-01-15T00:04:09.289Z,98.95
2024-01-15T00:05:09.161Z,98.95
2024-01-15T00:06:09.257Z,99.79
2024-01-15T00:07:09.188Z,99.37
2024-01-15T00:08:09.130Z,99.48
2024-01-15T00:09:09.151Z,99.16
2024-01-15T00:10:09.126Z,99.37
2024-01-15T00:11:09.116Z,99.27
2024-01-15T00:12:09.128Z,99.48
2024-01-15T00:13:09.114Z,99.48
2024-01-15T00:14:09.091Z,99.58
2024-01-15T00:15:09.109Z,99.37
2024-01-15T00:16:09.074Z,99.58
2024-01-15T00:17:09.070Z,99.48
2024-01-15T00:18:10.278Z,99.37
2024-01-15T00:19:09.116Z,99.48
2024-01-15T00:20:09.048Z,99.99
2024-01-15T00:21:09.156Z,99.99
2024-01-15T00:22:09.037Z,99.99
2024-01-15T00:23:09.075Z,99.37
2024-01-15T00:24:09.065Z,99.58
2024-01-15T00:25:09.012Z,99.68
2024-01-15T00:26:10.731Z,99.58
2024-01-15T00:27:10.025Z,99.58
2024-01-15T00:28:09.011Z,99.90
2024-01-15T00:29:09.032Z,99.68
2024-01-15T00:30:09.110Z,99.99
2024-01-15T00:31:09.057Z,99.99
2024-01-15T00:32:08.982Z,99.99
2024-01-15T00:33:09.087Z,99.74
2024-01-15T00:34:09.147Z,99.54
2024-01-15T00:35:08.989Z,99.22
2024-01-15T00:36:08.986Z,99.95
2024-01-15T00:37:08.957Z,99.32
2024-01-15T00:38:08.944Z,99.28
2024-01-15T00:39:08.962Z,99.59
2024-01-15T00:40:08.976Z,98.86
2024-01-15T00:41:08.926Z,98.65
2024-01-15T00:42:08.947Z,98.44
2024-01-15T00:43:09.120Z,98.18
2024-01-15T00:44:08.909Z,98.49
2024-01-15T00:45:08.948Z,98.44
2024-01-15T00:46:09.884Z,98.24
2024-01-15T00:47:08.899Z,98.07
2024-01-15T00:48:09.014Z,97.96
2024-01-15T00:49:08.951Z,97.65
2024-01-15T00:50:08.862Z,97.75
2024-01-15T00:51:08.885Z,97.55
2024-01-15T00:52:08.862Z,97.65
2024-01-15T00:53:08.848Z,98.07
2024-01-15T00:54:08.879Z,98.18
2024-01-15T00:55:08.831Z,98.07
2024-01-15T00:56:08.819Z,97.65
2024-01-15T00:57:08.834Z,98.43
2024-01-15T00:58:08.817Z,99.22
2024-01-15T00:59:08.822Z,99.68
2024-01-15T01:00:08.846Z,99.99
2024-01-15T01:01:08.926Z,99.99
2024-01-15T01:02:08.784Z,99.99
2024-01-15T01:03:08.828Z,99.99
2024-01-15T01:04:08.860Z,99.99
2024-01-15T01:05:08.831Z,99.99
2024-01-15T01:06:08.762Z,99.99
2024-01-15T01:07:08.756Z,99.99
2024-01-15T01:08:08.742Z,99.99
2024-01-15T01:09:08.754Z,99.99
2024-01-15T01:10:08.738Z,99.99
2024-01-15T01:11:08.718Z,99.99
2024-01-15T01:12:08.932Z,99.99
2024-01-15T01:13:08.734Z,99.99
2024-01-15T01:14:08.704Z,99.99
2024-01-15T01:15:08.754Z,99.99
2024-01-15T01:16:08.703Z,99.99
2024-01-15T01:17:08.725Z,99.99
2024-01-15T01:18:08.812Z,99.99
2024-01-15T01:19:09.276Z,99.99
2024-01-15T01:20:08.823Z,99.99
2024-01-15T01:21:08.719Z,99.99
2024-01-15T01:22:08.669Z,99.99
2024-01-15T01:23:08.670Z,99.99
2024-01-15T01:24:08.690Z,99.99
2024-01-15T01:25:08.637Z,99.99
2024-01-15T01:26:08.632Z,99.99
2024-01-15T01:27:08.649Z,99.99
2024-01-15T01:28:08.617Z,99.99
2024-01-15T01:29:08.600Z,99.68
2024-01-15T01:30:08.728Z,99.43
2024-01-15T01:31:08.755Z,99.85
2024-01-15T01:32:08.585Z,99.32
2024-01-15T01:33:08.710Z,99.16
2024-01-15T01:34:08.667Z,99.37
2024-01-15T01:35:08.562Z,99.22
2024-01-15T01:36:08.592Z,99.58
2024-01-15T01:37:08.542Z,99.90
2024-01-15T01:38:08.567Z,99.48
2024-01-15T01:39:08.586Z,99.16
2024-01-15T01:40:08.533Z,98.91
2024-01-15T01:41:08.540Z,98.91
2024-01-15T01:42:08.569Z,98.91
2024-01-15T01:43:08.525Z,98.38
2024-01-15T01:44:08.664Z,98.28
2024-01-15T01:45:08.587Z,97.86
2024-01-15T01:46:08.580Z,98.32
2024-01-15T01:47:08.484Z,98.18
2024-01-15T01:48:08.734Z,98.18
2024-01-15T01:49:08.581Z,98.18
2024-01-15T01:50:08.502Z,98.22
2024-01-15T01:51:08.509Z,98.18
2024-01-15T01:52:08.526Z,97.86
2024-01-15T01:53:08.446Z,98.32
2024-01-15T01:54:08.514Z,98.64
2024-01-15T01:55:08.475Z,98.54
2024-01-15T01:56:08.442Z,98.28
2024-01-15T01:57:08.498Z,98.32
2024-01-15T01:58:08.441Z,98.38
2024-01-15T01:59:08.412Z,98.43
2024-01-15T02:00:08.456Z,98.22
2024-01-15T02:01:08.582Z,98.18
2024-01-15T02:02:08.399Z,98.07
2024-01-15T02:03:08.430Z,97.96
2024-01-15T02:04:08.465Z,97.55
2024-01-15T02:05:08.406Z,97.75
2024-01-15T02:06:08.614Z,97.65
2024-01-15T02:07:08.410Z,97.69
2024-01-15T02:08:08.362Z,98.01
2024-01-15T02:09:08.376Z,98.59
2024-01-15T02:10:08.360Z,97.44
2024-01-15T02:11:08.334Z,96.92
2024-01-15T02:12:08.367Z,96.75
2024-01-15T02:13:08.340Z,96.81
2024-01-15T02:14:08.312Z,96.81
2024-01-15T02:15:08.341Z,97.02
2024-01-15T02:16:08.298Z,97.02
2024-01-15T02:17:08.318Z,96.81
2024-01-15T02:18:08.434Z,96.77
2024-01-15T02:19:08.343Z,97.02
2024-01-15T02:20:08.264Z,97.23
2024-01-15T02:21:08.303Z,97.02
2024-01-15T02:22:08.254Z,96.92
2024-01-15T02:23:08.254Z,96.92
2024-01-15T02:24:08.260Z,97.02
2024-01-15T02:25:08.232Z,96.92
2024-01-15T02:26:08.223Z,96.81
2024-01-15T02:27:08.243Z,96.92
2024-01-15T02:28:08.246Z,96.71
2024-01-15T02:29:08.210Z,96.98
2024-01-15T02:30:08.451Z,96.77
2024-01-15T02:31:08.291Z,97.08
2024-01-15T02:32:08.197Z,97.13
2024-01-15T02:33:08.331Z,96.92
2024-01-15T02:34:08.364Z,96.92
2024-01-15T02:35:08.182Z,96.92
2024-01-15T02:36:08.183Z,97.19
2024-01-15T02:37:08.158Z,96.88
2024-01-15T02:38:08.140Z,96.92
2024-01-15T02:39:08.188Z,97.13
2024-01-15T02:40:08.129Z,96.88
2024-01-15T02:41:08.124Z,96.92
2024-01-15T02:42:08.154Z,97.02
2024-01-15T02:43:08.119Z,97.02
2024-01-15T02:44:08.103Z,97.08
2024-01-15T02:45:08.144Z,96.71
2024-01-15T02:46:08.100Z,97.08
2024-01-15T02:47:08.084Z,96.71
2024-01-15T02:48:08.181Z,96.81
2024-01-15T02:49:08.139Z,96.92
2024-01-15T02:50:08.186Z,96.81
2024-01-15T02:51:08.085Z,96.71
2024-01-15T02:52:08.054Z,96.92
2024-01-15T02:53:08.045Z,97.02
2024-01-15T02:54:08.908Z,96.81
2024-01-15T02:55:09.055Z,97.13
2024-01-15T02:56:08.059Z,97.02
2024-01-15T02:57:08.072Z,96.92
2024-01-15T02:58:08.035Z,97.02
2024-01-15T02:59:08.021Z,96.92
2024-01-15T03:00:08.053Z,96.81
2024-01-15T03:01:08.204Z,97.02
2024-01-15T03:02:08.002Z,97.13
2024-01-15T03:03:08.131Z,97.28
2024-01-15T03:04:08.168Z,97.23
2024-01-15T03:05:07.995Z,97.34
2024-01-15T03:06:08.085Z,97.75
2024-01-15T03:07:07.956Z,97.23
2024-01-15T03:08:07.970Z,97.34
2024-01-15T03:09:07.996Z,97.55
2024-01-15T03:10:07.940Z,97.55
2024-01-15T03:11:07.933Z,97.23
2024-01-15T03:12:07.962Z,97.29
2024-01-15T03:13:08.924Z,97.55
2024-01-15T03:14:07.919Z,97.65
2024-01-15T03:15:08.036Z,97.69
2024-01-15T03:16:07.913Z,97.44
2024-01-15T03:17:07.923Z,97.49
2024-01-15T03:18:08.017Z,97.55
2024-01-15T03:19:07.954Z,97.38
2024-01-15T03:20:08.992Z,97.38
2024-01-15T03:21:07.949Z,97.49
2024-01-15T03:22:07.868Z,98.43
2024-01-15T03:23:07.913Z,98.22
2024-01-15T03:24:07.882Z,98.01
2024-01-15T03:25:07.858Z,97.95
2024-01-15T03:26:07.844Z,97.69
2024-01-15T03:27:07.867Z,97.95
2024-01-15T03:28:07.850Z,97.74
2024-01-15T03:29:07.823Z,98.01
2024-01-15T03:30:07.992Z,98.05
2024-01-15T03:31:08.001Z,97.74
2024-01-15T03:32:07.802Z,97.95
2024-01-15T03:33:07.882Z,97.63
2024-01-15T03:34:08.089Z,97.74
2024-01-15T03:35:07.888Z,97.53
2024-01-15T03:36:07.846Z,97.63
2024-01-15T03:37:07.790Z,98.05
2024-01-15T03:38:07.769Z,97.85
2024-01-15T03:39:07.881Z,97.99
2024-01-15T03:40:07.804Z,98.05
2024-01-15T03:41:07.743Z,98.26
2024-01-15T03:42:07.767Z,98.52
2024-01-15T03:43:07.742Z,98.52
2024-01-15T03:44:07.726Z,98.62
2024-01-15T03:45:07.759Z,98.31
2024-01-15T03:46:07.707Z,98.41
2024-01-15T03:47:07.711Z,98.41
2024-01-15T03:48:07.823Z,98.37
2024-01-15T03:49:07.782Z,98.52
2024-01-15T03:50:07.686Z,98.52
2024-01-15T03:51:07.725Z,98.41
2024-01-15T03:52:07.690Z,98.58
2024-01-15T03:53:07.676Z,98.21
2024-01-15T03:54:07.715Z,98.52
2024-01-15T03:55:07.798Z,98.52
2024-01-15T03:56:07.663Z,98.68
2024-01-15T03:57:07.655Z,97.99
2024-01-15T03:58:07.627Z,98.10
2024-01-15T03:59:07.615Z,97.99
2024-01-15T04:00:07.658Z,98.21
2024-01-15T04:01:07.712Z,98.21
2024-01-15T04:02:07.602Z,98.16
2024-01-15T04:03:07.705Z,98.31
2024-01-15T04:04:07.671Z,98.31
2024-01-15T04:05:07.578Z,98.05
2024-01-15T04:06:07.656Z,97.99
2024-01-15T04:07:07.614Z,98.10
2024-01-15T04:08:07.558Z,97.95
2024-01-15T04:09:07.592Z,98.37
2024-01-15T04:10:07.574Z,98.58
2024-01-15T04:11:07.552Z,98.22
2024-01-15T04:12:07.603Z,97.59
2024-01-15T04:13:07.524Z,97.28
2024-01-15T04:14:07.524Z,97.42
2024-01-15T04:15:07.563Z,97.49
2024-01-15T04:16:07.498Z,97.32
2024-01-15T04:17:07.544Z,97.59
2024-01-15T04:18:07.568Z,97.38
2024-01-15T04:19:07.738Z,97.17
2024-01-15T04:20:07.483Z,97.06
2024-01-15T04:21:07.516Z,96.96
2024-01-15T04:22:07.468Z,97.17
2024-01-15T04:23:07.481Z,96.75
2024-01-15T04:24:07.500Z,96.75
2024-01-15T04:25:07.472Z,96.96
2024-01-15T04:26:07.445Z,96.86
2024-01-15T04:27:07.534Z,97.00
2024-01-15T04:28:07.450Z,96.96
2024-01-15T04:29:07.423Z,97.06
2024-01-15T04:30:07.499Z,96.96
2024-01-15T04:31:07.523Z,96.86
2024-01-15T04:32:07.421Z,96.86
2024-01-15T04:33:07.578Z,96.96
2024-01-15T04:34:07.529Z,96.96
2024-01-15T04:35:07.392Z,96.86
2024-01-15T04:36:07.400Z,97.17
2024-01-15T04:37:07.443Z,96.96
2024-01-15T04:38:07.384Z,96.96
2024-01-15T04:39:07.439Z,96.86
2024-01-15T04:40:07.387Z,97.06
2024-01-15T04:41:07.355Z,96.75
2024-01-15T04:42:07.359Z,96.86
2024-01-15T04:43:07.331Z,97.06
2024-01-15T04:44:07.359Z,96.96
2024-01-15T04:45:07.514Z,96.96
2024-01-15T04:46:07.319Z,96.86
2024-01-15T04:47:07.320Z,96.96
2024-01-15T04:48:07.436Z,97.17
2024-01-15T04:49:07.341Z,97.06
2024-01-15T04:50:07.332Z,96.39
2024-01-15T04:51:07.405Z,96.55
2024-01-15T04:52:07.277Z,96.96
2024-01-15T04:53:09.103Z,97.28
2024-01-15T04:54:07.320Z,97.17
2024-01-15T04:55:07.284Z,96.96
2024-01-15T04:56:07.279Z,96.86
2024-01-15T04:57:07.283Z,96.86
2024-01-15T04:58:07.232Z,96.96
2024-01-15T04:59:07.237Z,96.96
2024-01-15T05:00:07.263Z,96.96
2024-01-15T05:01:07.323Z,97.17
2024-01-15T05:02:07.210Z,97.17
2024-01-15T05:03:07.297Z,97.17
2024-01-15T05:04:07.255Z,97.17
2024-01-15T05:05:08.197Z,96.86
2024-01-15T05:06:07.485Z,96.96
2024-01-15T05:07:07.196Z,96.96
2024-01-15T05:08:07.181Z,97.28
2024-01-15T05:09:07.246Z,96.75
2024-01-15T05:10:07.210Z,96.86
2024-01-15T05:11:07.182Z,96.96
2024-01-15T05:12:07.175Z,96.86
2024-01-15T05:13:07.157Z,96.75
2024-01-15T05:14:07.131Z,96.86
2024-01-15T05:15:07.259Z,96.96
2024-01-15T05:16:07.205Z,96.44
2024-01-15T05:17:10.559Z,96.86
2024-01-15T05:18:08.383Z,96.44
2024-01-15T05:19:07.135Z,96.65
2024-01-15T05:20:08.175Z,96.75
2024-01-15T05:21:07.172Z,96.61
2024-01-15T05:22:07.100Z,96.65
2024-01-15T05:23:07.116Z,96.61
2024-01-15T05:24:07.090Z,96.75
2024-01-15T05:25:07.058Z,97.28
2024-01-15T05:26:07.058Z,97.17
2024-01-15T05:27:07.083Z,96.96
2024-01-15T05:28:08.048Z,97.06
2024-01-15T05:29:07.051Z,97.06
2024-01-15T05:30:07.159Z,97.06
2024-01-15T05:31:07.119Z,97.06
2024-01-15T05:32:07.189Z,97.06
2024-01-15T05:33:07.189Z,97.06
2024-01-15T05:34:07.112Z,97.17
2024-01-15T05:35:06.999Z,97.06
2024-01-15T05:36:07.065Z,97.28
2024-01-15T05:37:06.983Z,97.06
2024-01-15T05:38:06.973Z,96.65
2024-01-15T05:39:07.015Z,96.55
2024-01-15T05:40:07.010Z,97.17
2024-01-15T05:41:06.989Z,97.17
2024-01-15T05:42:06.987Z,97.06
2024-01-15T05:43:06.947Z,97.17
2024-01-15T05:44:06.937Z,97.06
2024-01-15T05:45:07.038Z,97.23
2024-01-15T05:46:06.956Z,97.17
2024-01-15T05:47:06.940Z,96.55
2024-01-15T05:48:07.036Z,96.61
2024-01-15T05:49:07.007Z,96.61
2024-01-15T05:50:06.964Z,95.98
2024-01-15T05:51:06.990Z,96.50
2024-01-15T05:52:06.903Z,96.50
2024-01-15T05:53:06.864Z,96.71
2024-01-15T05:54:07.023Z,96.02
2024-01-15T05:55:06.853Z,96.29
2024-01-15T05:56:06.855Z,96.50
2024-01-15T05:57:06.918Z,96.71
2024-01-15T05:58:07.848Z,96.92
2024-01-15T05:59:06.830Z,96.29
2024-01-15T06:00:06.866Z,96.50
2024-01-15T06:01:06.880Z,96.39
2024-01-15T06:02:06.819Z,96.39
2024-01-15T06:03:06.810Z,96.35
2024-01-15T06:04:06.902Z,96.08
2024-01-15T06:05:06.814Z,96.35
2024-01-15T06:06:06.835Z,96.35
2024-01-15T06:07:06.809Z,95.76
2024-01-15T06:08:06.778Z,96.19
2024-01-15T06:09:06.838Z,96.25
2024-01-15T06:10:06.755Z,96.29
2024-01-15T06:11:06.746Z,95.83
2024-01-15T06:12:06.773Z,96.19
2024-01-15T06:13:06.732Z,95.72
2024-01-15T06:14:06.760Z,96.14
2024-01-15T06:15:06.712Z,95.98
2024-01-15T06:16:07.617Z,96.04
2024-01-15T06:17:07.720Z,95.72
2024-01-15T06:18:06.747Z,95.83
2024-01-15T06:19:06.792Z,95.83
2024-01-15T06:20:06.823Z,95.93
2024-01-15T06:21:06.674Z,95.66
2024-01-15T06:22:06.748Z,96.25
2024-01-15T06:23:06.677Z,95.83
2024-01-15T06:24:06.665Z,95.93
2024-01-15T06:25:06.658Z,95.72
2024-01-15T06:26:07.132Z,95.98
2024-01-15T06:27:06.628Z,95.87
2024-01-15T06:28:06.622Z,95.83
2024-01-15T06:29:06.639Z,95.62
2024-01-15T06:30:06.627Z,95.87
2024-01-15T06:31:06.678Z,95.93
2024-01-15T06:32:06.611Z,95.62
2024-01-15T06:33:06.642Z,95.93
2024-01-15T06:34:06.655Z,95.83
2024-01-15T06:35:06.598Z,95.98
2024-01-15T06:36:06.570Z,95.83
2024-01-15T06:37:06.586Z,95.93
2024-01-15T06:38:06.569Z,95.35
2024-01-15T06:39:06.590Z,95.93
2024-01-15T06:40:06.589Z,95.76
2024-01-15T06:41:06.567Z,95.62
2024-01-15T06:42:06.567Z,95.56
2024-01-15T06:43:06.904Z,95.83
2024-01-15T06:44:06.522Z,95.66
2024-01-15T06:45:06.538Z,95.87
2024-01-15T06:46:08.068Z,95.98
2024-01-15T06:47:06.529Z,95.66
2024-01-15T06:48:06.601Z,95.45
2024-01-15T06:49:06.561Z,95.98
2024-01-15T06:50:06.524Z,95.35
2024-01-15T06:51:06.552Z,95.98
2024-01-15T06:52:06.617Z,95.35
2024-01-15T06:53:06.472Z,95.35
2024-01-15T06:54:06.573Z,95.35
2024-01-15T06:55:06.486Z,95.56
2024-01-15T06:56:06.462Z,95.66
2024-01-15T06:57:06.532Z,95.56
2024-01-15T06:58:06.468Z,95.56
2024-01-15T06:59:06.434Z,95.66
2024-01-15T07:00:06.525Z,95.66
2024-01-15T07:01:06.508Z,95.70
2024-01-15T07:02:06.426Z,95.60
2024-01-15T07:03:06.464Z,95.39
2024-01-15T07:04:06.495Z,96.23
2024-01-15T07:05:06.557Z,95.66
2024-01-15T07:06:06.410Z,95.76
2024-01-15T07:07:06.448Z,95.76
2024-01-15T07:08:06.386Z,95.98
2024-01-15T07:09:06.378Z,95.76
2024-01-15T07:10:06.372Z,95.98
2024-01-15T07:11:06.383Z,95.25
2024-01-15T07:12:06.390Z,95.66
2024-01-15T07:13:06.357Z,95.56
2024-01-15T07:14:06.336Z,95.35
2024-01-15T07:15:06.399Z,95.20
2024-01-15T07:16:06.442Z,94.89
2024-01-15T07:17:06.334Z,94.78
2024-01-15T07:18:06.374Z,94.57
2024-01-15T07:19:06.488Z,94.68
2024-01-15T07:20:06.360Z,94.46
2024-01-15T07:21:06.306Z,94.68
2024-01-15T07:22:06.398Z,94.68
2024-01-15T07:23:06.322Z,95.09
2024-01-15T07:24:06.273Z,94.93
2024-01-15T07:25:06.489Z,95.25
2024-01-15T07:26:06.290Z,95.20
2024-01-15T07:27:06.264Z,95.25
2024-01-15T07:28:06.281Z,95.20
2024-01-15T07:29:06.257Z,95.56
2024-01-15T07:30:06.309Z,95.35
2024-01-15T07:31:06.279Z,95.09
2024-01-15T07:32:06.242Z,95.41
2024-01-15T07:33:06.320Z,95.09
2024-01-15T07:34:06.324Z,94.99
2024-01-15T07:35:06.327Z,95.20
2024-01-15T07:36:06.204Z,94.99
2024-01-15T07:37:06.195Z,94.36
2024-01-15T07:38:06.197Z,94.89
2024-01-15T07:39:06.759Z,94.95
2024-01-15T07:40:06.438Z,95.09
2024-01-15T07:41:06.198Z,95.09
2024-01-15T07:42:06.176Z,94.99
2024-01-15T07:43:06.178Z,94.57
2024-01-15T07:44:06.148Z,94.53
2024-01-15T07:45:06.146Z,94.46
2024-01-15T07:46:06.207Z,94.99
2024-01-15T07:47:06.134Z,94.78
2024-01-15T07:48:06.263Z,94.64
2024-01-15T07:49:06.158Z,94.11
2024-01-15T07:50:06.792Z,93.80
2024-01-15T07:51:06.107Z,94.32
2024-01-15T07:52:06.145Z,93.59
2024-01-15T07:53:06.111Z,93.90
2024-01-15T07:54:06.092Z,94.01
2024-01-15T07:55:06.071Z,94.01
2024-01-15T07:56:06.079Z,94.32
2024-01-15T07:57:06.095Z,94.11
2024-01-15T07:58:12.110Z,93.90
2024-01-15T07:59:08.065Z,94.11
2024-01-15T08:00:06.065Z,94.11
2024-01-15T08:01:06.184Z,93.59
2024-01-15T08:02:06.062Z,94.17
2024-01-15T08:03:06.226Z,93.70
2024-01-15T08:04:06.129Z,93.54
2024-01-15T08:05:06.193Z,94.07
2024-01-15T08:06:06.020Z,93.86
2024-01-15T08:07:06.038Z,93.86
2024-01-15T08:08:05.997Z,94.17
2024-01-15T08:09:05.988Z,93.76
2024-01-15T08:10:06.031Z,94.07
2024-01-15T08:11:06.007Z,93.82
2024-01-15T08:12:05.979Z,93.54
2024-01-15T08:13:05.991Z,93.33
2024-01-15T08:14:06.962Z,93.29
2024-01-15T08:15:05.953Z,92.98
2024-01-15T08:16:06.017Z,92.56
2024-01-15T08:17:05.923Z,92.83
2024-01-15T08:18:05.994Z,92.21
2024-01-15T08:19:06.118Z,92.31
2024-01-15T08:20:06.217Z,92.63
2024-01-15T08:21:05.905Z,91.37
2024-01-15T08:22:05.893Z,91.02
2024-01-15T08:23:05.902Z,90.35
2024-01-15T08:24:05.917Z,90.45
2024-01-15T08:25:05.880Z,89.51
2024-01-15T08:26:05.888Z,89.41
2024-01-15T08:27:05.886Z,90.50
2024-01-15T08:28:05.898Z,90.18
2024-01-15T08:29:06.886Z,90.28
2024-01-15T08:30:05.878Z,90.33
2024-01-15T08:31:05.937Z,90.91
2024-01-15T08:32:05.885Z,90.95
2024-01-15T08:33:11.404Z,91.58
2024-01-15T08:34:06.926Z,92.21
2024-01-15T08:35:05.943Z,92.25
2024-01-15T08:36:05.810Z,92.77
2024-01-15T08:37:05.808Z,93.19
2024-01-15T08:38:05.806Z,93.61
2024-01-15T08:39:05.819Z,93.71
2024-01-15T08:40:05.859Z,93.82
2024-01-15T08:41:05.786Z,93.54
2024-01-15T08:42:05.773Z,94.34
2024-01-15T08:43:05.763Z,94.55
2024-01-15T08:44:05.776Z,94.96
2024-01-15T08:45:05.749Z,94.86
2024-01-15T08:46:05.807Z,94.96
2024-01-15T08:47:05.755Z,95.17
2024-01-15T08:48:05.872Z,95.17
2024-01-15T08:49:05.827Z,95.38
2024-01-15T08:50:05.832Z,95.28
2024-01-15T08:51:05.727Z,95.38
2024-01-15T08:52:05.721Z,95.49
2024-01-15T08:53:05.725Z,95.07
2024-01-15T08:54:05.709Z,95.74
2024-01-15T08:55:05.699Z,95.49
2024-01-15T08:56:05.716Z,95.95
2024-01-15T08:57:05.690Z,95.95
2024-01-15T08:58:05.669Z,96.68
2024-01-15T08:59:05.668Z,97.00
2024-01-15T09:00:06.660Z,96.78
2024-01-15T09:01:05.846Z,96.74
2024-01-15T09:02:05.689Z,96.89
2024-01-15T09:03:05.671Z,97.05
2024-01-15T09:04:05.805Z,96.84
2024-01-15T09:05:05.907Z,96.58
2024-01-15T09:06:05.613Z,96.05
2024-01-15T09:07:05.810Z,96.16
2024-01-15T09:08:05.604Z,95.90
2024-01-15T09:09:05.622Z,95.17
2024-01-15T09:10:05.598Z,94.96
2024-01-15T09:11:05.586Z,94.19
2024-01-15T09:12:05.605Z,93.92
2024-01-15T09:13:05.576Z,93.25
2024-01-15T09:14:05.560Z,93.88
2024-01-15T09:15:05.795Z,93.04
2024-01-15T09:16:05.818Z,92.47
2024-01-15T09:17:05.615Z,92.33
2024-01-15T09:18:07.960Z,92.44
2024-01-15T09:19:05.591Z,90.06
2024-01-15T09:20:05.637Z,89.64
2024-01-15T09:21:05.553Z,88.87
2024-01-15T09:22:05.606Z,88.66
2024-01-15T09:23:05.540Z,88.85
2024-01-15T09:24:05.512Z,90.00
2024-01-15T09:25:05.670Z,89.83
2024-01-15T09:26:05.531Z,90.25
2024-01-15T09:27:05.497Z,90.28
2024-01-15T09:28:05.486Z,90.81
2024-01-15T09:29:05.488Z,91.08
2024-01-15T09:30:05.501Z,90.77
2024-01-15T09:31:05.573Z,90.03
2024-01-15T09:32:05.574Z,90.56
2024-01-15T09:33:05.522Z,90.20
2024-01-15T09:34:05.536Z,89.62
2024-01-15T09:35:05.445Z,90.35
2024-01-15T09:36:05.435Z,90.31
2024-01-15T09:37:05.551Z,90.14
2024-01-15T09:38:05.441Z,89.83
2024-01-15T09:39:05.426Z,89.83
2024-01-15T09:40:05.429Z,89.62
2024-01-15T09:41:05.406Z,90.45
2024-01-15T09:42:05.410Z,89.41
2024-01-15T09:43:05.441Z,90.25
2024-01-15T09:44:05.393Z,90.25
2024-01-15T09:45:05.390Z,90.18
2024-01-15T09:46:05.481Z,90.81
2024-01-15T09:47:05.364Z,90.50
2024-01-15T09:48:05.422Z,90.75
2024-01-15T09:49:05.464Z,90.60
2024-01-15T09:50:06.259Z,91.12
2024-01-15T09:51:05.347Z,90.81
2024-01-15T09:52:09.505Z,90.81
2024-01-15T09:53:07.353Z,90.45
2024-01-15T09:54:05.347Z,90.60
2024-01-15T09:55:05.452Z,91.12
2024-01-15T09:56:05.308Z,91.02
2024-01-15T09:57:05.407Z,91.02
2024-01-15T09:58:05.414Z,90.87
2024-01-15T09:59:05.311Z,90.50
2024-01-15T10:00:05.528Z,90.70
2024-01-15T10:01:08.249Z,90.70
2024-01-15T10:02:05.294Z,90.70
2024-01-15T10:03:05.277Z,90.39
2024-01-15T10:04:05.416Z,90.66
2024-01-15T10:05:05.347Z,90.45
2024-01-15T10:06:05.283Z,90.14
2024-01-15T10:07:05.299Z,90.25
2024-01-15T10:08:05.241Z,89.26
2024-01-15T10:09:05.248Z,89.64
2024-01-15T10:10:06.453Z,88.60
2024-01-15T10:11:05.224Z,88.18
2024-01-15T10:12:05.236Z,88.18
2024-01-15T10:13:05.353Z,88.35
2024-01-15T10:14:05.230Z,87.52
2024-01-15T10:15:05.223Z,87.10
2024-01-15T10:16:05.266Z,86.89
2024-01-15T10:17:05.192Z,87.37
2024-01-15T10:18:05.213Z,86.99
2024-01-15T10:19:05.250Z,87.76
2024-01-15T10:20:05.192Z,87.81
2024-01-15T10:21:05.156Z,88.43
2024-01-15T10:22:05.197Z,88.99
2024-01-15T10:23:05.154Z,89.72
2024-01-15T10:24:05.239Z,90.18
2024-01-15T10:25:05.180Z,90.25
2024-01-15T10:26:05.151Z,90.70
2024-01-15T10:27:05.131Z,90.81
2024-01-15T10:28:05.200Z,91.12
2024-01-15T10:29:05.132Z,91.33
2024-01-15T10:30:05.149Z,91.69
2024-01-15T10:31:05.148Z,91.27
2024-01-15T10:32:05.183Z,92.31
2024-01-15T10:33:05.229Z,92.27
2024-01-15T10:34:05.136Z,92.37
2024-01-15T10:35:05.121Z,92.27
2024-01-15T10:36:05.078Z,92.79
2024-01-15T10:37:05.188Z,92.27
2024-01-15T10:38:05.048Z,92.37
2024-01-15T10:39:05.036Z,92.47
2024-01-15T10:40:06.618Z,92.27
2024-01-15T10:41:05.037Z,92.69
2024-01-15T10:42:05.072Z,92.69
2024-01-15T10:43:05.022Z,92.90
2024-01-15T10:44:05.010Z,92.69
2024-01-15T10:45:05.070Z,93.27
2024-01-15T10:46:05.022Z,92.85
2024-01-15T10:47:04.999Z,93.23
2024-01-15T10:48:05.105Z,92.71
2024-01-15T10:49:05.051Z,92.71
2024-01-15T10:50:05.021Z,92.54
2024-01-15T10:51:04.978Z,92.65
2024-01-15T10:52:05.067Z,93.59
2024-01-15T10:53:04.962Z,93.84
2024-01-15T10:54:05.051Z,93.84
2024-01-15T10:55:08.665Z,94.35
2024-01-15T10:56:06.977Z,94.29
2024-01-15T10:57:05.965Z,94.82
2024-01-15T10:58:05.002Z,95.23
2024-01-15T10:59:04.928Z,95.44
2024-01-15T11:00:04.940Z,95.76
2024-01-15T11:01:05.025Z,95.76
2024-01-15T11:02:05.045Z,95.76
2024-01-15T11:03:05.106Z,95.61
2024-01-15T11:04:04.940Z,94.98
2024-01-15T11:05:04.913Z,95.15
2024-01-15T11:06:05.124Z,95.15
2024-01-15T11:07:05.205Z,94.52
2024-01-15T11:08:04.859Z,93.79
2024-01-15T11:09:05.740Z,93.69
2024-01-15T11:10:04.920Z,93.33
2024-01-15T11:11:04.852Z,93.37
2024-01-15T11:12:04.880Z,93.16
2024-01-15T11:13:04.830Z,93.79
2024-01-15T11:14:04.846Z,94.25
2024-01-15T11:15:04.823Z,95.09
2024-01-15T11:16:04.862Z,95.76
2024-01-15T11:17:04.805Z,96.70
2024-01-15T11:18:05.296Z,96.70
2024-01-15T11:19:04.934Z,97.11
2024-01-15T11:20:04.874Z,97.74
2024-01-15T11:21:04.773Z,98.16
2024-01-15T11:22:04.808Z,98.89
2024-01-15T11:23:04.782Z,99.31
2024-01-15T11:24:04.761Z,99.41
2024-01-15T11:25:04.888Z,99.99
2024-01-15T11:26:04.748Z,99.99
2024-01-15T11:27:04.734Z,99.99
2024-01-15T11:28:04.786Z,99.99
2024-01-15T11:29:04.834Z,99.99
2024-01-15T11:30:04.770Z,99.99
2024-01-15T11:31:04.970Z,99.99
2024-01-15T11:32:05.893Z,99.99
2024-01-15T11:33:04.830Z,99.99
2024-01-15T11:34:04.827Z,99.99
2024-01-15T11:35:05.114Z,99.99
2024-01-15T11:36:04.704Z,99.99
2024-01-15T11:37:04.717Z,99.99
2024-01-15T11:38:04.686Z,99.99
2024-01-15T11:39:04.669Z,99.99
2024-01-15T11:40:04.727Z,99.99
2024-01-15T11:41:04.747Z,99.99
2024-01-15T11:42:04.678Z,99.99
2024-01-15T11:43:04.752Z,99.99
2024-01-15T11:44:04.651Z,99.99
2024-01-15T11:45:04.739Z,99.99
2024-01-15T11:46:04.662Z,99.99
2024-01-15T11:47:04.658Z,99.99
2024-01-15T11:48:04.670Z,99.99
2024-01-15T11:49:04.736Z,99.99
2024-01-15T11:50:04.778Z,99.99
2024-01-15T11:51:04.614Z,99.99
2024-01-15T11:52:04.588Z,99.99
2024-01-15T11:53:07.091Z,99.99
2024-01-15T11:54:05.572Z,99.99
2024-01-15T11:55:04.585Z,99.99
2024-01-15T11:56:04.581Z,99.99
2024-01-15T11:57:04.547Z,99.99
2024-01-15T11:58:04.544Z,99.99
2024-01-15T11:59:05.408Z,99.99
2024-01-15T12:00:05.535Z,99.99
2024-01-15T12:01:04.551Z,99.99
2024-01-15T12:02:04.687Z,99.99
2024-01-15T12:03:04.513Z,99.99
2024-01-15T12:04:04.625Z,99.99
2024-01-15T12:05:04.614Z,99.99
2024-01-15T12:06:04.546Z,99.99
2024-01-15T12:07:04.643Z,99.99
2024-01-15T12:08:04.477Z,99.99
2024-01-15T12:09:04.479Z,99.99
2024-01-15T12:10:04.478Z,99.99
2024-01-15T12:11:04.491Z,99.99
2024-01-15T12:12:04.485Z,99.84
2024-01-15T12:13:04.457Z,99.95
2024-01-15T12:14:04.453Z,99.22
2024-01-15T12:15:04.437Z,99.53
2024-01-15T12:16:04.441Z,98.90
2024-01-15T12:17:06.031Z,99.69
2024-01-15T12:18:05.555Z,98.96
2024-01-15T12:19:04.507Z,99.07
2024-01-15T12:20:04.417Z,99.27
2024-01-15T12:21:04.395Z,99.54
2024-01-15T12:22:04.393Z,98.23
2024-01-15T12:23:06.234Z,98.02
2024-01-15T12:24:04.388Z,98.13
2024-01-15T12:25:04.386Z,98.34
2024-01-15T12:26:04.382Z,98.59
2024-01-15T12:27:04.362Z,98.23
2024-01-15T12:28:04.354Z,98.75
2024-01-15T12:29:04.378Z,99.17
2024-01-15T12:30:04.458Z,98.96
2024-01-15T12:31:04.432Z,99.59
2024-01-15T12:32:04.345Z,99.27
2024-01-15T12:33:04.372Z,98.23
2024-01-15T12:34:04.387Z,97.98
2024-01-15T12:35:04.683Z,98.02
2024-01-15T12:36:05.354Z,98.13
2024-01-15T12:37:04.310Z,97.35
2024-01-15T12:38:04.568Z,97.14
2024-01-15T12:39:04.314Z,97.56
2024-01-15T12:40:04.277Z,97.77
2024-01-15T12:41:04.267Z,98.04
2024-01-15T12:42:04.372Z,96.89
2024-01-15T12:43:04.295Z,97.00
2024-01-15T12:44:04.256Z,97.00
2024-01-15T12:45:04.244Z,97.00
2024-01-15T12:46:04.302Z,97.56
2024-01-15T12:47:04.243Z,97.94
2024-01-15T12:48:04.283Z,97.00
2024-01-15T12:49:04.287Z,96.58
2024-01-15T12:50:10.346Z,97.14
2024-01-15T12:51:06.217Z,96.83
2024-01-15T12:52:04.228Z,96.52